Time;durP1;ratioP1;P1;durP2;ratioP2;P2;SDS_P1;SDS_P2;PMS_P1;PMS_P2;Temp;Humidity;BMP_temperature;BMP_pressure;BME280_temperature;BME280_humidity;BME280_pressure;Samples;Min_cycle;Max_cycle;Signal;HPM_P1;HPM_P2
2022/11/09 00:01:27;;;;;;;0.77;0.77;;;13.40;99.90;;;;;;5002715;28;20238;-63
2022/11/09 00:03:56;;;;;;;0.80;0.80;;;13.40;99.90;;;;;;5011076;28;20575;-63
2022/11/09 00:06:24;;;;;;;0.97;0.97;;;13.40;99.90;;;;;;5012615;28;20204;-62
2022/11/09 00:08:51;;;;;;;0.70;0.70;;;13.50;99.90;;;;;;5012080;28;20221;-62
2022/11/09 00:11:19;;;;;;;0.80;0.80;;;13.50;99.90;;;;;;5012887;28;20218;-62
2022/11/09 00:13:46;;;;;;;0.70;0.70;;;13.50;99.90;;;;;;5011749;28;20205;-62
2022/11/09 00:16:16;;;;;;;0.80;0.80;;;13.50;99.90;;;;;;5012496;28;20743;-63
2022/11/09 00:18:46;;;;;;;0.70;0.70;;;13.50;99.90;;;;;;5011386;28;20201;-63
2022/11/09 00:21:14;;;;;;;0.70;0.70;;;13.70;99.90;;;;;;5012516;28;20244;-64
2022/11/09 00:23:43;;;;;;;0.80;0.80;;;13.50;99.90;;;;;;5011801;28;20221;-64
2022/11/09 00:26:12;;;;;;;0.70;0.70;;;13.50;99.90;;;;;;5012512;28;20205;-63
2022/11/09 00:28:38;;;;;;;0.60;0.60;;;13.50;99.90;;;;;;5003823;28;20208;-63
2022/11/09 00:31:07;;;;;;;0.80;0.80;;;13.50;99.90;;;;;;5012632;28;20229;-62
2022/11/09 00:33:34;;;;;;;0.60;0.60;;;13.50;99.90;;;;;;5011201;28;20247;-63
2022/11/09 00:36:06;;;;;;;1.27;0.70;;;13.50;99.90;;;;;;5012303;28;20553;-63
2022/11/09 00:38:33;;;;;;;0.70;0.70;;;13.60;99.90;;;;;;5011403;28;20216;-63
2022/11/09 00:41:02;;;;;;;0.90;0.90;;;13.70;99.90;;;;;;5010290;28;20434;-63
2022/11/09 00:43:29;;;;;;;0.77;0.77;;;13.80;99.90;;;;;;5008177;28;20225;-61
2022/11/09 00:45:56;;;;;;;0.90;0.90;;;13.80;99.90;;;;;;5008974;28;20850;-63
2022/11/09 00:48:22;;;;;;;0.80;0.80;;;13.70;99.90;;;;;;5008018;28;20201;-63
2022/11/09 00:50:50;;;;;;;0.90;0.90;;;13.80;99.90;;;;;;5011563;28;20235;-62
2022/11/09 00:53:18;;;;;;;0.80;0.80;;;13.80;99.90;;;;;;5011576;28;20208;-62
2022/11/09 00:55:54;;;;;;;0.90;0.87;;;13.80;99.90;;;;;;5011955;28;20232;-63
2022/11/09 00:58:22;;;;;;;0.90;0.90;;;13.80;99.90;;;;;;5009266;28;20205;-63
2022/11/09 01:00:49;;;;;;;1.10;1.10;;;13.80;99.90;;;;;;5011949;28;20217;-64
2022/11/09 01:03:16;;;;;;;0.90;0.90;;;13.80;99.90;;;;;;5018464;28;20269;-62
2022/11/09 01:05:43;;;;;;;0.77;0.77;;;13.80;99.90;;;;;;5011944;28;20674;-62
2022/11/09 01:08:10;;;;;;;0.70;0.70;;;13.80;99.90;;;;;;5011564;28;20209;-62
2022/11/09 01:10:41;;;;;;;1.00;1.00;;;13.90;99.90;;;;;;5011255;28;20232;-61
2022/11/09 01:13:08;;;;;;;1.10;1.10;;;13.90;99.90;;;;;;5011779;28;20217;-62
2022/11/09 01:15:40;;;;;;;0.90;0.90;;;13.90;99.90;;;;;;5011132;28;20201;-61
2022/11/09 01:18:07;;;;;;;0.93;0.93;;;13.80;99.90;;;;;;5011592;28;20208;-62
2022/11/09 01:20:34;;;;;;;0.90;0.90;;;13.70;99.90;;;;;;5011286;28;20729;-62
2022/11/09 01:23:01;;;;;;;0.90;0.90;;;13.70;99.90;;;;;;5011616;28;20216;-64
2022/11/09 01:25:27;;;;;;;0.90;0.90;;;13.80;99.90;;;;;;5010460;28;20208;-63
2022/11/09 01:27:54;;;;;;;0.83;0.83;;;13.90;99.90;;;;;;5012058;28;20551;-63
2022/11/09 01:30:21;;;;;;;0.77;0.77;;;13.80;99.90;;;;;;5011205;28;20229;-64
2022/11/09 01:32:49;;;;;;;1.00;1.00;;;13.90;99.90;;;;;;5012326;28;20296;-63
2022/11/09 01:35:16;;;;;;;0.90;0.90;;;13.90;99.90;;;;;;5010787;28;20209;-66
2022/11/09 01:37:43;;;;;;;0.80;0.80;;;13.90;99.90;;;;;;5011943;28;20228;-63
2022/11/09 01:40:11;;;;;;;0.90;0.90;;;14.00;99.90;;;;;;5010804;28;20224;-64
2022/11/09 01:42:40;;;;;;;1.10;1.00;;;13.90;99.90;;;;;;5011843;28;20225;-62
2022/11/09 01:45:31;;;;;;;1.00;1.00;;;13.80;99.90;;;;;;5010722;28;20216;-61
2022/11/09 01:48:04;;;;;;;0.87;0.87;;;13.80;99.90;;;;;;5006033;28;20202;-62
2022/11/09 01:50:38;;;;;;;1.10;1.10;;;13.80;99.90;;;;;;5011201;28;20229;-61
2022/11/09 01:53:08;;;;;;;1.00;1.00;;;13.70;99.90;;;;;;5011980;28;20200;-62
2022/11/09 01:55:35;;;;;;;0.90;0.90;;;13.80;99.90;;;;;;5010419;28;20563;-61
2022/11/09 01:58:07;;;;;;;1.07;1.07;;;13.80;99.90;;;;;;5011577;28;20205;-62
2022/11/09 02:00:37;;;;;;;1.00;1.00;;;13.80;99.90;;;;;;5011214;28;20224;-62
2022/11/09 02:03:09;;;;;;;1.10;1.10;;;13.80;99.90;;;;;;5011423;28;20205;-62
2022/11/09 02:05:39;;;;;;;0.93;0.93;;;13.70;99.90;;;;;;5010542;28;20204;-64
2022/11/09 02:08:08;;;;;;;1.03;1.03;;;13.70;99.90;;;;;;5010589;28;20237;-62
2022/11/09 02:10:40;;;;;;;1.10;1.10;;;13.70;99.90;;;;;;5010525;28;20235;-60
2022/11/09 02:13:09;;;;;;;1.37;1.13;;;13.70;99.90;;;;;;5011316;28;20241;-63
2022/11/09 02:15:37;;;;;;;1.10;1.10;;;13.70;99.90;;;;;;5011104;28;20804;-64
2022/11/09 02:18:06;;;;;;;1.10;1.10;;;13.60;99.90;;;;;;5014510;28;20794;-63
2022/11/09 02:20:45;;;;;;;0.83;0.83;;;13.50;99.90;;;;;;5014713;28;20261;-62
2022/11/09 02:23:12;;;;;;;0.70;0.70;;;13.50;99.90;;;;;;5013699;28;20205;-63
2022/11/09 02:25:39;;;;;;;0.90;0.90;;;13.50;99.90;;;;;;5009745;28;20202;-62
2022/11/09 02:28:06;;;;;;;0.97;0.97;;;13.50;99.90;;;;;;5014257;28;20201;-62
2022/11/09 02:30:35;;;;;;;1.00;0.90;;;13.50;99.90;;;;;;5014061;28;20237;-63
2022/11/09 02:33:02;;;;;;;0.70;0.70;;;13.50;99.90;;;;;;5014396;28;20208;-61
2022/11/09 02:35:29;;;;;;;0.90;0.90;;;13.50;99.90;;;;;;5013899;28;20205;-61
2022/11/09 02:37:57;;;;;;;1.10;1.10;;;13.50;99.90;;;;;;5009869;28;20205;-62
2022/11/09 02:40:30;;;;;;;0.80;0.80;;;13.50;99.90;;;;;;5014048;28;20237;-62
2022/11/09 02:42:57;;;;;;;0.77;0.77;;;13.50;99.90;;;;;;5014838;28;20292;-62
2022/11/09 02:45:24;;;;;;;0.90;0.90;;;13.50;99.90;;;;;;5014434;28;20201;-62
2022/11/09 02:47:50;;;;;;;0.80;0.80;;;13.50;99.90;;;;;;5014596;28;20202;-62
2022/11/09 02:50:17;;;;;;;1.20;0.90;;;13.50;99.90;;;;;;5013824;28;20225;-63
2022/11/09 02:52:44;;;;;;;0.80;0.80;;;13.50;99.90;;;;;;5014392;28;20215;-63
2022/11/09 02:55:12;;;;;;;0.90;0.90;;;13.50;99.90;;;;;;5013227;28;20205;-62
2022/11/09 02:57:39;;;;;;;0.83;0.83;;;13.50;99.90;;;;;;5014062;28;20297;-62
2022/11/09 03:00:07;;;;;;;0.90;0.90;;;13.50;99.90;;;;;;5016203;28;20217;-63
2022/11/09 03:02:35;;;;;;;0.80;0.80;;;13.50;99.90;;;;;;5014905;28;20209;-63
2022/11/09 03:05:02;;;;;;;0.90;0.90;;;13.50;99.90;;;;;;5012906;28;20680;-63
2022/11/09 03:07:29;;;;;;;0.83;0.83;;;13.50;99.90;;;;;;5017170;28;20201;-63
2022/11/09 03:09:56;;;;;;;0.70;0.70;;;13.50;99.90;;;;;;5013059;28;20235;-63
2022/11/09 03:12:31;;;;;;;0.70;0.70;;;13.50;99.90;;;;;;5012583;28;20225;-62
2022/11/09 03:14:57;;;;;;;0.60;0.60;;;13.50;99.90;;;;;;5015006;28;20741;-62
2022/11/09 03:17:25;;;;;;;0.53;0.53;;;13.60;99.90;;;;;;5013306;28;20201;-64
2022/11/09 03:19:52;;;;;;;0.73;0.73;;;13.60;99.90;;;;;;5015465;28;20217;-63
2022/11/09 03:22:19;;;;;;;0.77;0.77;;;13.60;99.90;;;;;;5014300;28;20198;-66
2022/11/09 03:24:46;;;;;;;0.63;0.63;;;13.60;99.90;;;;;;5013261;28;20205;-64
2022/11/09 03:27:14;;;;;;;0.70;0.70;;;13.70;99.90;;;;;;5012784;28;20209;-63
2022/11/09 03:29:42;;;;;;;0.63;0.60;;;13.70;99.90;;;;;;5012582;28;20319;-63
2022/11/09 03:32:09;;;;;;;0.60;0.60;;;13.70;99.90;;;;;;5013379;28;20549;-63
2022/11/09 03:34:36;;;;;;;0.77;0.77;;;13.70;99.90;;;;;;5012198;28;20212;-62
2022/11/09 03:37:03;;;;;;;0.50;0.50;;;13.70;99.90;;;;;;5013116;28;20212;-63
2022/11/09 03:39:30;;;;;;;1.23;0.60;;;13.70;99.90;;;;;;5012499;28;20225;-62
2022/11/09 03:41:57;;;;;;;0.70;0.70;;;13.70;99.90;;;;;;5013213;28;20204;-62
2022/11/09 03:44:23;;;;;;;0.60;0.60;;;13.60;99.90;;;;;;5012643;28;20202;-64
2022/11/09 03:46:51;;;;;;;0.70;0.70;;;13.60;99.90;;;;;;5013100;28;20197;-63
2022/11/09 03:49:18;;;;;;;0.50;0.50;;;13.60;99.90;;;;;;5012361;28;20221;-62
2022/11/09 03:51:46;;;;;;;0.63;0.63;;;13.60;99.90;;;;;;5016474;28;20225;-62
2022/11/09 03:54:15;;;;;;;0.63;0.63;;;13.60;99.90;;;;;;5014948;28;20229;-62
2022/11/09 03:56:42;;;;;;;0.63;0.63;;;13.60;99.90;;;;;;5018539;28;20483;-62
2022/11/09 03:59:09;;;;;;;0.50;0.50;;;13.60;99.90;;;;;;5012563;28;20708;-63
2022/11/09 04:01:36;;;;;;;0.70;0.70;;;13.70;99.90;;;;;;5012933;28;20193;-63
2022/11/09 04:04:04;;;;;;;0.47;0.47;;;13.70;99.90;;;;;;5014541;28;20220;-63
2022/11/09 04:06:31;;;;;;;0.70;0.70;;;13.70;99.90;;;;;;5012496;28;20208;-63
2022/11/09 04:08:58;;;;;;;0.50;0.50;;;13.80;99.90;;;;;;5012478;28;20202;-63
2022/11/09 04:11:25;;;;;;;0.50;0.50;;;13.80;99.90;;;;;;5012382;28;20213;-62
2022/11/09 04:13:51;;;;;;;0.70;0.70;;;13.80;99.90;;;;;;5011477;28;20201;-63
2022/11/09 04:16:18;;;;;;;0.80;0.80;;;13.90;99.90;;;;;;5012745;28;20205;-63
2022/11/09 04:18:45;;;;;;;0.50;0.50;;;13.90;99.90;;;;;;5011839;28;20207;-62
2022/11/09 04:21:13;;;;;;;0.73;0.73;;;13.90;99.90;;;;;;5012718;28;20243;-63
2022/11/09 04:23:40;;;;;;;0.50;0.50;;;14.00;99.90;;;;;;5011866;28;20197;-63
2022/11/09 04:26:07;;;;;;;0.80;0.80;;;14.00;99.90;;;;;;5012153;28;20201;-62
2022/11/09 04:28:33;;;;;;;0.60;0.60;;;14.00;99.90;;;;;;5011372;28;20213;-62
2022/11/09 04:31:01;;;;;;;0.60;0.60;;;14.00;99.90;;;;;;5012264;28;20225;-63
2022/11/09 04:33:28;;;;;;;0.70;0.70;;;14.00;99.90;;;;;;5011644;28;20657;-63
2022/11/09 04:35:55;;;;;;;0.70;0.70;;;14.00;99.90;;;;;;5012436;28;20207;-63
2022/11/09 04:38:23;;;;;;;0.60;0.60;;;14.10;99.90;;;;;;5010798;28;20208;-63
2022/11/09 04:40:50;;;;;;;0.50;0.50;;;14.10;99.90;;;;;;5011243;28;20213;-64
2022/11/09 04:43:17;;;;;;;0.60;0.60;;;14.10;99.90;;;;;;5011272;28;20201;-64
2022/11/09 04:45:44;;;;;;;0.53;0.53;;;14.20;99.90;;;;;;5012317;28;20231;-62
2022/11/09 04:48:12;;;;;;;0.57;0.57;;;14.10;99.90;;;;;;5011240;28;20938;-63
2022/11/09 04:50:38;;;;;;;0.60;0.60;;;14.20;99.90;;;;;;5011728;28;20221;-64
2022/11/09 04:53:07;;;;;;;0.57;0.57;;;14.20;99.90;;;;;;5012422;28;20211;-62
2022/11/09 04:55:36;;;;;;;0.50;0.50;;;14.20;99.90;;;;;;5011331;28;20210;-62
2022/11/09 04:58:03;;;;;;;0.57;0.57;;;14.10;99.90;;;;;;5011589;28;20207;-64
2022/11/09 05:00:30;;;;;;;0.60;0.60;;;14.20;99.90;;;;;;5012162;28;20221;-64
2022/11/09 05:03:00;;;;;;;0.60;0.60;;;14.20;99.90;;;;;;5012142;28;20255;-64
2022/11/09 05:05:27;;;;;;;0.70;0.70;;;14.20;99.90;;;;;;5011460;28;20212;-62
2022/11/09 05:07:53;;;;;;;0.37;0.37;;;14.20;99.90;;;;;;5011304;28;20216;-62
2022/11/09 05:10:20;;;;;;;0.70;0.70;;;14.30;99.90;;;;;;5011089;28;20240;-62
2022/11/09 05:12:48;;;;;;;0.50;0.50;;;14.30;99.90;;;;;;5011718;28;20675;-63
2022/11/09 05:15:15;;;;;;;0.60;0.60;;;14.30;99.90;;;;;;5005631;28;20206;-63
2022/11/09 05:17:42;;;;;;;0.60;0.60;;;14.30;99.90;;;;;;5008573;28;20201;-63
2022/11/09 05:20:10;;;;;;;0.50;0.50;;;14.30;99.90;;;;;;5004309;28;20638;-63
2022/11/09 05:25:24;;;;;;;0.63;0.63;;;14.40;99.90;;;;;;5010925;28;20216;-63
2022/11/09 05:27:53;;;;;;;0.50;0.50;;;14.40;99.90;;;;;;5011593;28;20216;-64
2022/11/09 05:30:20;;;;;;;0.50;0.50;;;14.40;99.90;;;;;;5010741;28;20663;-64
2022/11/09 05:32:47;;;;;;;0.73;0.73;;;14.50;99.90;;;;;;5008982;28;20202;-63
2022/11/09 05:35:14;;;;;;;0.60;0.57;;;14.60;99.90;;;;;;5008114;28;20653;-64
2022/11/09 05:37:41;;;;;;;0.53;0.53;;;14.60;99.90;;;;;;5007843;28;20202;-64
2022/11/09 05:40:09;;;;;;;0.60;0.60;;;14.60;99.90;;;;;;5010986;28;20225;-64
2022/11/09 05:42:39;;;;;;;0.40;0.40;;;14.60;99.90;;;;;;5012182;28;20205;-63
2022/11/09 05:45:09;;;;;;;0.50;0.50;;;14.80;99.90;;;;;;5011267;28;20208;-64
2022/11/09 05:47:39;;;;;;;0.47;0.40;;;14.70;99.90;;;;;;5011672;28;20209;-64
2022/11/09 05:50:08;;;;;;;0.73;0.73;;;14.70;99.90;;;;;;5010407;28;20221;-65
2022/11/09 05:52:35;;;;;;;0.53;0.53;;;14.70;99.90;;;;;;5015496;28;20297;-64
2022/11/09 05:55:02;;;;;;;0.57;0.57;;;14.70;99.90;;;;;;5014632;28;20288;-63
2022/11/09 05:57:29;;;;;;;0.60;0.60;;;14.70;99.90;;;;;;5016955;28;20288;-63
2022/11/09 05:59:56;;;;;;;0.83;0.83;;;14.70;99.90;;;;;;5013208;28;20721;-63
2022/11/09 06:02:24;;;;;;;0.60;0.60;;;14.80;99.90;;;;;;5015596;28;20220;-63
2022/11/09 06:04:51;;;;;;;0.70;0.70;;;14.60;99.90;;;;;;5014964;28;20568;-63
2022/11/09 06:07:18;;;;;;;0.60;0.60;;;14.50;99.90;;;;;;5017247;28;20207;-62
2022/11/09 06:09:45;;;;;;;0.60;0.60;;;14.40;99.90;;;;;;5013683;28;20235;-63
2022/11/09 06:12:11;;;;;;;0.50;0.50;;;14.50;99.90;;;;;;5015161;28;20225;-62
2022/11/09 06:14:38;;;;;;;0.67;0.67;;;14.40;99.90;;;;;;5014656;28;20208;-63
2022/11/09 06:17:05;;;;;;;0.60;0.60;;;14.40;99.90;;;;;;5044524;23;20568;-65
2022/11/09 06:19:33;;;;;;;0.50;0.50;;;14.40;99.90;;;;;;5003392;28;20229;-66
2022/11/09 06:22:00;;;;;;;0.60;0.60;;;14.40;99.90;;;;;;5005441;28;20267;-64
2022/11/09 06:24:27;;;;;;;0.50;0.50;;;14.40;99.90;;;;;;5005926;28;20814;-66
2022/11/09 06:26:54;;;;;;;0.67;0.67;;;14.40;99.90;;;;;;4999957;28;20222;-65
2022/11/09 06:29:20;;;;;;;0.60;0.60;;;14.40;99.90;;;;;;5003788;28;20209;-65
2022/11/09 06:31:47;;;;;;;0.50;0.50;;;14.60;99.90;;;;;;4998495;28;20214;-65
2022/11/09 06:34:14;;;;;;;0.47;0.47;;;14.50;99.90;;;;;;5000629;28;20614;-64
2022/11/09 06:36:43;;;;;;;0.30;0.30;;;14.40;99.90;;;;;;5015980;28;20232;-66
2022/11/09 06:39:10;;;;;;;0.70;0.70;;;14.50;99.90;;;;;;5004812;28;20206;-66
2022/11/09 06:41:36;;;;;;;0.57;0.57;;;14.50;99.90;;;;;;5007395;28;20293;-65
2022/11/09 06:44:04;;;;;;;0.50;0.50;;;14.40;99.90;;;;;;5004125;28;20294;-65
2022/11/09 06:46:31;;;;;;;0.60;0.60;;;14.40;99.90;;;;;;5004389;28;20209;-65
2022/11/09 06:48:58;;;;;;;0.60;0.60;;;14.40;99.90;;;;;;5001104;28;20205;-64
2022/11/09 06:51:25;;;;;;;0.40;0.40;;;14.40;99.90;;;;;;4998889;28;20302;-64
2022/11/09 06:53:53;;;;;;;0.40;0.40;;;14.40;99.90;;;;;;4998195;28;20278;-65
2022/11/09 06:56:20;;;;;;;0.50;0.50;;;14.30;99.90;;;;;;4998402;28;20237;-65
2022/11/09 06:58:47;;;;;;;0.50;0.50;;;14.30;99.90;;;;;;5005558;28;20233;-65
2022/11/09 07:01:17;;;;;;;0.60;0.60;;;14.20;99.90;;;;;;4996035;28;21071;-65
2022/11/09 07:03:43;;;;;;;0.83;0.83;;;14.20;99.90;;;;;;4997336;28;20281;-65
2022/11/09 07:06:12;;;;;;;0.70;0.70;;;14.10;99.90;;;;;;5003489;28;20201;-65
2022/11/09 07:08:40;;;;;;;0.60;0.60;;;14.10;99.90;;;;;;4997219;28;20245;-65
2022/11/09 07:11:10;;;;;;;0.60;0.60;;;14.10;99.90;;;;;;5013678;28;20237;-65
2022/11/09 07:13:37;;;;;;;0.50;0.50;;;14.10;99.90;;;;;;5001179;28;20301;-66
2022/11/09 07:16:04;;;;;;;0.97;0.80;;;14.00;99.90;;;;;;4999337;28;20569;-65
2022/11/09 07:18:31;;;;;;;0.80;0.80;;;14.00;99.90;;;;;;4992010;28;20244;-66
2022/11/09 07:20:58;;;;;;;0.70;0.70;;;14.10;99.90;;;;;;4994237;28;20202;-66
2022/11/09 07:23:25;;;;;;;0.70;0.70;;;14.10;99.90;;;;;;4993208;28;20208;-65
2022/11/09 07:25:52;;;;;;;0.80;0.80;;;14.00;99.90;;;;;;4997882;28;20220;-65
2022/11/09 07:28:20;;;;;;;0.80;0.80;;;14.00;99.90;;;;;;4999229;28;20312;-64
2022/11/09 07:30:50;;;;;;;0.63;0.63;;;14.00;99.90;;;;;;4991133;28;20252;-65
2022/11/09 07:33:18;;;;;;;0.60;0.60;;;14.00;99.90;;;;;;4994743;28;20261;-65
2022/11/09 07:35:46;;;;;;;0.67;0.67;;;14.00;99.90;;;;;;4991562;28;20198;-66
2022/11/09 07:38:14;;;;;;;0.50;0.50;;;13.90;99.90;;;;;;4995165;28;20230;-65
2022/11/09 07:40:41;;;;;;;0.50;0.50;;;13.90;99.90;;;;;;5001731;28;20213;-65
2022/11/09 07:43:08;;;;;;;0.47;0.47;;;13.90;99.90;;;;;;4999651;28;20205;-65
2022/11/09 07:45:36;;;;;;;0.50;0.50;;;13.80;99.90;;;;;;5000398;28;20209;-66
2022/11/09 07:48:06;;;;;;;0.53;0.53;;;13.80;99.90;;;;;;4994009;28;20238;-66
2022/11/09 07:50:34;;;;;;;0.33;0.33;;;13.80;99.90;;;;;;4994100;28;20220;-65
2022/11/09 07:53:02;;;;;;;0.37;0.37;;;13.80;99.90;;;;;;4997436;28;20201;-65
2022/11/09 07:55:30;;;;;;;0.57;0.57;;;13.80;99.90;;;;;;4993501;28;20296;-65
2022/11/09 07:57:57;;;;;;;0.40;0.40;;;13.80;99.90;;;;;;5004411;28;20253;-65
2022/11/09 08:00:24;;;;;;;0.30;0.30;;;13.70;99.90;;;;;;5007353;28;20209;-65
2022/11/09 08:02:53;;;;;;;0.30;0.30;;;13.70;99.90;;;;;;5000600;28;20289;-65
2022/11/09 08:05:20;;;;;;;0.30;0.30;;;13.70;99.90;;;;;;5012222;28;20270;-66
2022/11/09 08:07:47;;;;;;;0.40;0.40;;;13.70;99.90;;;;;;5009991;28;20236;-66
2022/11/09 08:10:14;;;;;;;0.40;0.40;;;13.70;99.90;;;;;;4999096;28;20210;-65
2022/11/09 08:12:41;;;;;;;0.30;0.30;;;13.70;99.90;;;;;;4993570;28;20225;-65
2022/11/09 08:15:08;;;;;;;0.50;0.50;;;13.80;99.90;;;;;;4992710;28;20214;-65
2022/11/09 08:17:35;;;;;;;1.40;0.50;;;13.80;99.90;;;;;;4992583;28;20587;-66
2022/11/09 08:20:04;;;;;;;0.70;0.70;;;13.80;99.90;;;;;;4999801;28;20288;-66
2022/11/09 08:22:31;;;;;;;0.60;0.60;;;13.90;99.90;;;;;;5002338;28;20652;-66
2022/11/09 08:24:58;;;;;;;0.60;0.60;;;13.90;99.90;;;;;;4998926;28;20296;-66
2022/11/09 08:27:24;;;;;;;0.50;0.50;;;13.90;99.90;;;;;;4993814;28;20308;-66
2022/11/09 08:29:51;;;;;;;0.70;0.70;;;13.90;99.90;;;;;;4992115;28;20208;-66
2022/11/09 08:32:18;;;;;;;0.50;0.50;;;14.00;99.90;;;;;;4992252;28;20224;-65
2022/11/09 08:34:47;;;;;;;0.70;0.70;;;14.00;99.90;;;;;;4995257;28;20209;-66
2022/11/09 08:37:15;;;;;;;0.40;0.40;;;14.00;99.90;;;;;;4995777;28;20726;-66
2022/11/09 08:39:42;;;;;;;0.50;0.50;;;14.00;99.90;;;;;;4992809;28;20202;-65
2022/11/09 08:42:09;;;;;;;0.63;0.63;;;14.10;99.90;;;;;;4993245;28;20205;-64
2022/11/09 08:44:36;;;;;;;1.07;0.30;;;14.10;99.90;;;;;;4993720;28;20686;-66
2022/11/09 08:47:03;;;;;;;0.50;0.50;;;14.20;99.90;;;;;;4993932;28;20238;-65
2022/11/09 08:49:31;;;;;;;0.53;0.53;;;14.30;99.90;;;;;;4991028;28;20236;-65
2022/11/09 08:51:58;;;;;;;0.37;0.37;;;14.40;99.90;;;;;;4994220;28;20303;-65
2022/11/09 08:54:26;;;;;;;0.40;0.40;;;14.50;99.90;;;;;;4993308;28;20198;-67
2022/11/09 08:56:55;;;;;;;0.50;0.50;;;14.50;99.90;;;;;;4994083;28;21098;-66
2022/11/09 08:59:22;;;;;;;0.40;0.40;;;14.60;99.90;;;;;;4992576;28;20217;-66
2022/11/09 09:01:49;;;;;;;0.50;0.50;;;14.70;99.90;;;;;;4997002;28;20293;-66
2022/11/09 09:04:16;;;;;;;0.50;0.50;;;14.80;99.90;;;;;;4999236;28;20207;-66
2022/11/09 09:06:43;;;;;;;0.30;0.30;;;14.80;99.90;;;;;;4994257;28;20226;-65
2022/11/09 09:09:10;;;;;;;0.40;0.40;;;14.90;99.90;;;;;;5002305;28;20671;-66
2022/11/09 09:11:38;;;;;;;0.50;0.50;;;14.90;99.90;;;;;;4994933;28;20229;-65
2022/11/09 09:14:05;;;;;;;0.40;0.40;;;14.90;99.90;;;;;;4995542;28;20665;-65
2022/11/09 09:16:32;;;;;;;0.60;0.60;;;15.00;99.90;;;;;;4992863;28;20296;-65
2022/11/09 09:18:59;;;;;;;0.40;0.40;;;15.00;99.90;;;;;;4998057;28;20208;-66
2022/11/09 09:21:25;;;;;;;0.73;0.47;;;15.00;99.90;;;;;;5002927;28;20201;-66
2022/11/09 09:23:52;;;;;;;0.50;0.50;;;15.00;99.90;;;;;;4995283;28;20292;-64
2022/11/09 09:26:20;;;;;;;0.70;0.70;;;15.00;99.90;;;;;;5004205;28;20232;-66
2022/11/09 09:28:48;;;;;;;0.50;0.50;;;15.00;99.90;;;;;;4996759;28;20228;-66
2022/11/09 09:31:15;;;;;;;0.37;0.37;;;15.10;99.90;;;;;;4998857;28;20216;-66
2022/11/09 09:33:41;;;;;;;0.30;0.30;;;15.20;99.90;;;;;;5004187;28;20652;-66
2022/11/09 09:36:15;;;;;;;0.60;0.60;;;15.20;99.90;;;;;;4996182;28;20683;-67
2022/11/09 09:38:42;;;;;;;0.60;0.60;;;15.20;99.90;;;;;;4996277;28;20221;-66
2022/11/09 09:41:18;;;;;;;0.47;0.47;;;15.30;99.90;;;;;;5004920;28;20226;-66
2022/11/09 09:43:49;;;;;;;0.50;0.50;;;15.30;99.90;;;;;;4989748;28;20284;-66
2022/11/09 09:46:21;;;;;;;0.50;0.50;;;15.40;99.90;;;;;;4997216;28;20194;-65
2022/11/09 09:48:52;;;;;;;0.33;0.33;;;15.40;99.90;;;;;;4989077;28;20229;-66
2022/11/09 09:51:28;;;;;;;0.50;0.50;;;15.40;99.90;;;;;;5001216;28;20202;-66
2022/11/09 09:54:01;;;;;;;0.50;0.50;;;15.40;99.90;;;;;;4991607;28;20289;-66
2022/11/09 09:56:32;;;;;;;0.60;0.60;;;15.50;99.90;;;;;;4999831;28;20194;-66
2022/11/09 09:59:06;;;;;;;0.30;0.30;;;15.50;99.90;;;;;;4990374;28;20198;-67
2022/11/09 10:01:37;;;;;;;0.68;0.68;;;15.50;99.90;;;;;;4995912;28;20216;-66
2022/11/09 10:04:15;;;;;;;1.23;1.13;;;15.50;99.90;;;;;;4990559;28;20202;-67
2022/11/09 10:06:57;;;;;;;1.00;0.80;;;15.60;99.90;;;;;;4998084;28;20213;-65
2022/11/09 10:09:35;;;;;;;0.80;0.80;;;15.60;99.90;;;;;;4988390;28;20202;-66
2022/11/09 10:12:11;;;;;;;0.50;0.50;;;15.70;99.90;;;;;;4995465;28;20294;-66
2022/11/09 10:15:03;;;;;;;0.40;0.40;;;15.80;99.90;;;;;;4995071;28;20194;-66
2022/11/09 10:17:40;;;;;;;0.60;0.60;;;15.80;99.90;;;;;;4995662;28;20295;-66
2022/11/09 10:20:22;;;;;;;0.32;0.32;;;15.90;99.90;;;;;;4994939;28;20206;-66
2022/11/09 10:23:02;;;;;;;0.53;0.50;;;15.90;99.90;;;;;;4992628;28;20298;-67
2022/11/09 10:25:33;;;;;;;0.37;0.37;;;15.90;99.90;;;;;;5001374;28;20546;-66
2022/11/09 10:28:03;;;;;;;4.73;2.10;;;16.00;99.90;;;;;;5006956;28;20221;-65
2022/11/09 10:30:31;;;;;;;0.97;0.97;;;16.00;99.90;;;;;;5002524;28;20216;-66
2022/11/09 10:33:02;;;;;;;1.43;1.10;;;16.00;99.90;;;;;;5000695;28;20652;-66
2022/11/09 10:35:30;;;;;;;1.60;1.50;;;16.10;99.90;;;;;;5007459;28;20203;-65
2022/11/09 10:37:57;;;;;;;2.93;2.57;;;16.20;99.90;;;;;;5001600;28;20248;-65
2022/11/09 10:40:28;;;;;;;0.93;0.93;;;16.30;99.90;;;;;;5001996;28;20205;-66
2022/11/09 10:42:57;;;;;;;0.77;0.77;;;16.40;99.90;;;;;;4995803;28;20285;-66
2022/11/09 10:45:32;;;;;;;0.60;0.60;;;16.40;99.90;;;;;;4994467;28;20206;-65
2022/11/09 10:47:59;;;;;;;0.60;0.60;;;16.40;99.90;;;;;;4995179;28;20723;-65
2022/11/09 10:50:32;;;;;;;0.93;0.80;;;16.50;99.90;;;;;;4995490;28;20217;-65
2022/11/09 10:53:10;;;;;;;0.50;0.50;;;16.50;99.90;;;;;;4998268;28;20217;-66
2022/11/09 10:55:37;;;;;;;0.60;0.60;;;16.50;99.90;;;;;;4996013;28;20210;-65
2022/11/09 10:58:20;;;;;;;0.70;0.70;;;16.40;99.90;;;;;;4995107;28;20232;-65
2022/11/09 11:01:00;;;;;;;0.50;0.50;;;16.40;99.90;;;;;;4987557;28;20232;-66
2022/11/09 11:03:28;;;;;;;0.87;0.63;;;16.40;99.90;;;;;;5009943;28;20201;-66
2022/11/09 11:06:00;;;;;;;0.50;0.50;;;16.40;99.90;;;;;;5002989;28;20206;-66
2022/11/09 11:08:31;;;;;;;0.70;0.70;;;16.50;99.90;;;;;;4993400;28;20244;-66
2022/11/09 11:11:19;;;;;;;0.33;0.33;;;16.50;99.90;;;;;;5006614;28;20202;-66
2022/11/09 11:13:48;;;;;;;0.47;0.47;;;16.50;99.90;;;;;;5007294;28;20304;-66
2022/11/09 11:16:26;;;;;;;0.60;0.60;;;16.50;99.90;;;;;;5002593;28;20221;-66
2022/11/09 11:18:53;;;;;;;0.40;0.40;;;16.50;99.90;;;;;;4997729;28;20228;-66
2022/11/09 11:21:22;;;;;;;0.50;0.50;;;16.70;99.90;;;;;;5002343;28;20197;-66
2022/11/09 11:24:13;;;;;;;0.60;0.57;;;16.50;99.90;;;;;;4995934;28;20297;-66
2022/11/09 11:26:52;;;;;;;0.33;0.33;;;16.60;99.90;;;;;;4994962;28;20209;-66
2022/11/09 11:29:36;;;;;;;0.30;0.30;;;16.60;99.90;;;;;;5003583;28;20215;-66
2022/11/09 11:32:08;;;;;;;0.67;0.67;;;16.60;99.90;;;;;;4996056;28;20250;-66
2022/11/09 11:34:38;;;;;;;0.80;0.80;;;16.70;99.90;;;;;;4993317;28;20220;-66
2022/11/09 11:37:26;;;;;;;0.53;0.53;;;16.70;99.90;;;;;;4994548;28;20228;-65
2022/11/09 11:40:01;;;;;;;0.67;0.30;;;16.70;99.90;;;;;;4994935;28;20201;-66
2022/11/09 11:42:57;;;;;;;0.43;0.43;;;16.80;99.90;;;;;;4996634;28;20215;-65
2022/11/09 11:45:31;;;;;;;0.50;0.50;;;16.90;99.90;;;;;;4997921;28;20202;-66
2022/11/09 11:48:22;;;;;;;0.60;0.60;;;16.90;99.90;;;;;;4995246;28;20221;-66
2022/11/09 11:50:54;;;;;;;0.43;0.43;;;16.90;99.90;;;;;;4994600;28;20210;-66
2022/11/09 11:53:35;;;;;;;0.63;0.63;;;17.00;99.90;;;;;;4993854;28;20612;-65
2022/11/09 11:56:29;;;;;;;0.50;0.43;;;16.90;99.90;;;;;;4994366;28;20201;-66
2022/11/09 11:59:33;;;;;;;0.43;0.43;;;16.90;99.90;;;;;;4999463;28;20265;-66
2022/11/09 12:02:24;;;;;;;0.60;0.60;;;16.90;99.90;;;;;;4972029;28;20616;-64
2022/11/09 12:05:16;;;;;;;0.47;0.37;;;16.90;99.90;;;;;;4994400;28;20570;-66
2022/11/09 12:07:51;;;;;;;0.60;0.60;;;17.00;99.90;;;;;;4985999;28;20222;-65
2022/11/09 12:10:31;;;;;;;0.47;0.47;;;16.90;99.90;;;;;;4992517;28;20296;-66
2022/11/09 12:13:09;;;;;;;0.50;0.50;;;16.90;99.90;;;;;;4993193;28;20224;-66
2022/11/09 12:15:50;;;;;;;0.30;0.30;;;16.90;99.90;;;;;;5011722;28;20206;-66
2022/11/09 12:18:28;;;;;;;0.50;0.50;;;16.90;99.90;;;;;;4992314;28;20724;-65
2022/11/09 12:21:06;;;;;;;0.60;0.60;;;16.90;99.90;;;;;;4993686;28;20237;-66
2022/11/09 12:23:52;;;;;;;0.60;0.60;;;16.90;99.90;;;;;;4994668;28;20202;-66
2022/11/09 12:26:25;;;;;;;0.60;0.60;;;16.90;99.90;;;;;;4982784;28;20653;-65
2022/11/09 12:29:09;;;;;;;0.70;0.70;;;16.90;99.90;;;;;;4992392;28;20233;-65
2022/11/09 12:31:48;;;;;;;0.63;0.63;;;16.90;99.90;;;;;;4995528;28;20209;-66
2022/11/09 12:34:20;;;;;;;0.60;0.60;;;16.90;99.90;;;;;;4992561;28;20703;-66
2022/11/09 12:36:55;;;;;;;0.50;0.50;;;16.90;99.90;;;;;;5001487;28;20226;-66
2022/11/09 12:39:29;;;;;;;0.57;0.57;;;16.80;99.90;;;;;;4994036;28;20201;-65
2022/11/09 12:42:00;;;;;;;0.60;0.60;;;16.80;99.90;;;;;;4993438;28;20288;-66
2022/11/09 12:44:32;;;;;;;0.70;0.70;;;16.90;99.90;;;;;;4995477;28;20211;-65
2022/11/09 12:47:03;;;;;;;0.80;0.80;;;16.90;99.90;;;;;;4992421;28;20604;-66
2022/11/09 12:49:36;;;;;;;0.87;0.70;;;16.80;99.90;;;;;;4992289;28;20242;-66
2022/11/09 12:52:06;;;;;;;0.50;0.50;;;16.70;99.90;;;;;;5002297;28;20205;-66
2022/11/09 12:54:34;;;;;;;0.50;0.50;;;16.70;99.90;;;;;;4993281;28;20563;-66
2022/11/09 12:57:04;;;;;;;0.30;0.30;;;16.60;99.90;;;;;;4996472;28;20295;-66
2022/11/09 12:59:36;;;;;;;0.47;0.47;;;16.60;99.90;;;;;;4993557;28;20280;-64
2022/11/09 13:02:04;;;;;;;0.67;0.67;;;16.70;99.90;;;;;;4994928;28;20735;-66
2022/11/09 13:04:31;;;;;;;0.60;0.60;;;16.70;99.90;;;;;;4991645;28;20208;-66